Tui, Spain
Current Conditions -  °F | °C
As of 3:30 AM on Sunday 21 Dec 2014 (Local Time) from LEVX Reporting Station
Few Clouds Few Clouds  
Wind Chill: 48°   Ceiling: Unl
Heat Index: 48°   Visibility: 4mi
Dew Point: 48°   Wind: 3mph
Humidity: 100%   Direction: 240°WSW
Pressure: 30.5"   Gusts: NA
Location:  42.05°N, 8.64°W
Report Text: LEVX 210230Z 24003KT 200V290 6000 FEW001 09/09 Q1033 TEMPO 0350 FG
Loading
Personal Weather Stations






























Interactive Weather Map New forecast layout! Learn more

10-Day Weather Forecast

Advertisements
Track Severe Weather on mobile